Noatak Airport
PAWN : rendu visible

Aérodrome :











RETROUVEZ-NOUS SUR...

 
LOGIN :

S'inscrire | Disclaimer

   EN    FR    IT 

 









Légende :    VFR   VFR Marginal   IFR   IFR Intensif   IFR Très Intensif
Visi : 
Plafond : 
>= 8 km
>= 3000ft
5 à 8 km
1000 à 3000 ft
1500m à 5 km
500 à 1000 ft
800 à 1500m
200 à 500 ft
< 800m
< 200 ft
Symboles :   Orages  Brouillard  Fortes neiges  Fortes précipitations  Vent > 20 kt






- Altitude de l'aérodrome : 88 ft
- Code IATA : WTK


PAWN - Noatak

DERNIER METAR :
  • 072345Z AUTO 15006KT 10SM SCT019 M11/M18 A3007 RMK AO2 FZRANO

METARs EXPIRÉS :
  • 072256Z AUTO 27003KT 10SM OVC019 M12/M19 A3008 RMK AO2 SLP201 T11171189 FZRANO
  • 072219Z AUTO 00000KT 10SM BKN019 M14/M19 A3009 RMK AO2 FZRANO
  • 072203Z AUTO 00000KT 10SM FEW014 SCT019 M15/M20 A3009 RMK AO2 FZRANO
  • 072156Z AUTO 33003KT 10SM FEW014 BKN019 M15/M20 A3009 RMK AO2 SLP204 T11501200 FZRANO
  • 072146Z AUTO 34004KT 10SM BKN017 M16/M20 A3009 RMK AO2 FZRANO
  • 072116Z AUTO 31003KT 10SM SCT017 M17/M21 A3009 RMK AO2 FZRANO
  • 072056Z AUTO 33003KT 4SM HZ BKN015 M18/M22 A3008 RMK AO2 SLP202 T11781217 52006 FZRANO

TAF N/A



MET'MAP, la Météo Aéronautique d'un coup d'oeil ! - Copyright ORBIFLY Décembre 2007 - Disclaimer

ORBIFLY MET'MAP TEAM :

Programmation & Développement : Alexandra Zaïnal
Sur une idée originale de : Baudouin d'Aumeries
Assistance à la programmation : Marc-Olivier Méhu
Soutien technique & logistique : Manuel Goepfert

Contact : metmap@orbifly.com




SOURCES & CREDITS :

   NOAA       Earth
Advisory